sensor_id;sensor_type;location;lat;lon;timestamp;pressure;altitude;pressure_sealevel;temperature;humidity
80186;BME280;69904;52.122;5.422;2023-05-29T00:01:59;102475.06;;;13.39;64.49
80186;BME280;69904;52.122;5.422;2023-05-29T00:04:25;102472.69;;;13.36;63.87
80186;BME280;69904;52.122;5.422;2023-05-29T00:06:52;102483.53;;;13.44;64.12
80186;BME280;69904;52.122;5.422;2023-05-29T00:09:18;102477.25;;;13.43;64.38
80186;BME280;69904;52.122;5.422;2023-05-29T00:11:45;102474.22;;;13.38;64.10
80186;BME280;69904;52.122;5.422;2023-05-29T00:14:17;102471.66;;;13.45;64.16
80186;BME280;69904;52.122;5.422;2023-05-29T00:16:46;102478.31;;;13.34;64.06
80186;BME280;69904;52.122;5.422;2023-05-29T00:19:13;102465.47;;;13.28;64.03
80186;BME280;69904;52.122;5.422;2023-05-29T00:21:40;102468.63;;;13.40;63.84
80186;BME280;69904;52.122;5.422;2023-05-29T00:24:06;102467.69;;;13.25;63.68
80186;BME280;69904;52.122;5.422;2023-05-29T00:26:33;102468.00;;;13.30;64.21
80186;BME280;69904;52.122;5.422;2023-05-29T00:28:59;102465.78;;;13.33;63.60
80186;BME280;69904;52.122;5.422;2023-05-29T00:31:26;102471.22;;;13.25;64.09
80186;BME280;69904;52.122;5.422;2023-05-29T00:33:52;102470.06;;;13.20;64.17
80186;BME280;69904;52.122;5.422;2023-05-29T00:36:19;102477.00;;;13.22;64.18
80186;BME280;69904;52.122;5.422;2023-05-29T00:38:45;102477.88;;;13.15;64.08
80186;BME280;69904;52.122;5.422;2023-05-29T00:41:15;102479.22;;;13.11;63.79
80186;BME280;69904;52.122;5.422;2023-05-29T00:43:42;102478.03;;;13.05;64.33
80186;BME280;69904;52.122;5.422;2023-05-29T00:46:13;102488.06;;;13.13;64.12
80186;BME280;69904;52.122;5.422;2023-05-29T00:48:41;102488.22;;;13.03;64.28
80186;BME280;69904;52.122;5.422;2023-05-29T00:51:10;102485.31;;;13.04;64.17
80186;BME280;69904;52.122;5.422;2023-05-29T00:53:39;102497.00;;;13.05;63.81
80186;BME280;69904;52.122;5.422;2023-05-29T00:56:07;102493.81;;;12.93;64.54
80186;BME280;69904;52.122;5.422;2023-05-29T00:58:34;102487.88;;;13.06;63.80
80186;BME280;69904;52.122;5.422;2023-05-29T01:01:01;102499.22;;;13.01;64.05
80186;BME280;69904;52.122;5.422;2023-05-29T01:03:29;102494.66;;;12.94;63.75
80186;BME280;69904;52.122;5.422;2023-05-29T01:05:58;102492.81;;;12.94;63.77
80186;BME280;69904;52.122;5.422;2023-05-29T01:08:25;102490.44;;;12.91;64.22
80186;BME280;69904;52.122;5.422;2023-05-29T01:10:56;102490.78;;;12.88;64.50
80186;BME280;69904;52.122;5.422;2023-05-29T01:13:29;102496.03;;;12.90;64.07
80186;BME280;69904;52.122;5.422;2023-05-29T01:16:07;102495.50;;;12.94;63.98
80186;BME280;69904;52.122;5.422;2023-05-29T01:24:32;102517.72;;;12.90;63.95
80186;BME280;69904;52.122;5.422;2023-05-29T01:27:05;102518.06;;;12.87;64.39
80186;BME280;69904;52.122;5.422;2023-05-29T01:29:34;102521.78;;;12.86;64.39
80186;BME280;69904;52.122;5.422;2023-05-29T01:32:01;102525.53;;;12.77;64.26
80186;BME280;69904;52.122;5.422;2023-05-29T01:34:28;102529.09;;;12.69;64.68
80186;BME280;69904;52.122;5.422;2023-05-29T01:36:55;102529.78;;;12.71;64.27
80186;BME280;69904;52.122;5.422;2023-05-29T01:39:22;102537.91;;;12.71;64.26
80186;BME280;69904;52.122;5.422;2023-05-29T01:41:50;102530.78;;;12.70;64.32
80186;BME280;69904;52.122;5.422;2023-05-29T01:44:17;102536.84;;;12.72;64.63
80186;BME280;69904;52.122;5.422;2023-05-29T01:46:44;102532.97;;;12.66;64.40
80186;BME280;69904;52.122;5.422;2023-05-29T01:49:12;102539.09;;;12.60;64.31
80186;BME280;69904;52.122;5.422;2023-05-29T01:51:42;102544.13;;;12.55;64.92
80186;BME280;69904;52.122;5.422;2023-05-29T01:54:08;102546.19;;;12.53;64.48
80186;BME280;69904;52.122;5.422;2023-05-29T01:56:36;102541.09;;;12.50;65.10
80186;BME280;69904;52.122;5.422;2023-05-29T01:59:03;102543.63;;;12.52;64.65
80186;BME280;69904;52.122;5.422;2023-05-29T02:01:31;102541.78;;;12.44;64.84
80186;BME280;69904;52.122;5.422;2023-05-29T02:03:58;102549.91;;;12.44;65.14
80186;BME280;69904;52.122;5.422;2023-05-29T02:06:24;102545.47;;;12.35;64.98
80186;BME280;69904;52.122;5.422;2023-05-29T02:08:51;102563.13;;;12.39;65.27
80186;BME280;69904;52.122;5.422;2023-05-29T02:11:17;102552.59;;;12.36;65.10
80186;BME280;69904;52.122;5.422;2023-05-29T02:13:43;102555.13;;;12.30;65.10
80186;BME280;69904;52.122;5.422;2023-05-29T02:16:10;102547.34;;;12.27;65.24
80186;BME280;69904;52.122;5.422;2023-05-29T02:18:36;102543.78;;;12.26;65.66
80186;BME280;69904;52.122;5.422;2023-05-29T02:21:03;102531.63;;;12.22;65.50
80186;BME280;69904;52.122;5.422;2023-05-29T02:23:29;102531.78;;;12.20;65.73
80186;BME280;69904;52.122;5.422;2023-05-29T02:25:56;102526.84;;;12.16;65.90
80186;BME280;69904;52.122;5.422;2023-05-29T02:28:23;102527.00;;;12.14;65.61
80186;BME280;69904;52.122;5.422;2023-05-29T02:30:50;102528.38;;;12.18;65.78
80186;BME280;69904;52.122;5.422;2023-05-29T02:33:17;102536.34;;;12.12;65.56
80186;BME280;69904;52.122;5.422;2023-05-29T02:35:43;102537.19;;;12.12;65.99
80186;BME280;69904;52.122;5.422;2023-05-29T02:38:10;102534.63;;;12.11;65.63
80186;BME280;69904;52.122;5.422;2023-05-29T02:40:36;102535.78;;;12.08;65.69
80186;BME280;69904;52.122;5.422;2023-05-29T02:43:02;102543.72;;;11.94;65.94
80186;BME280;69904;52.122;5.422;2023-05-29T02:45:29;102550.78;;;11.87;66.69
80186;BME280;69904;52.122;5.422;2023-05-29T02:47:55;102551.28;;;11.82;66.50
80186;BME280;69904;52.122;5.422;2023-05-29T02:50:22;102545.88;;;11.82;66.72
80186;BME280;69904;52.122;5.422;2023-05-29T02:52:48;102550.44;;;11.81;66.57
80186;BME280;69904;52.122;5.422;2023-05-29T02:55:15;102550.44;;;11.81;66.89
80186;BME280;69904;52.122;5.422;2023-05-29T02:57:41;102545.56;;;11.85;66.86
80186;BME280;69904;52.122;5.422;2023-05-29T03:00:08;102536.75;;;11.83;66.74
80186;BME280;69904;52.122;5.422;2023-05-29T03:02:35;102543.50;;;11.79;66.79
80186;BME280;69904;52.122;5.422;2023-05-29T03:05:02;102551.38;;;11.64;66.92
80186;BME280;69904;52.122;5.422;2023-05-29T03:07:29;102556.28;;;11.69;66.73
80186;BME280;69904;52.122;5.422;2023-05-29T03:09:55;102550.41;;;11.73;66.96
80186;BME280;69904;52.122;5.422;2023-05-29T03:12:25;102554.91;;;11.65;66.78
80186;BME280;69904;52.122;5.422;2023-05-29T03:14:54;102558.44;;;11.65;66.88
80186;BME280;69904;52.122;5.422;2023-05-29T03:17:23;102548.66;;;11.64;66.97
80186;BME280;69904;52.122;5.422;2023-05-29T03:19:49;102548.47;;;11.58;67.10
80186;BME280;69904;52.122;5.422;2023-05-29T03:22:17;102541.31;;;11.49;67.21
80186;BME280;69904;52.122;5.422;2023-05-29T03:24:43;102534.59;;;11.53;67.01
80186;BME280;69904;52.122;5.422;2023-05-29T03:27:09;102535.59;;;11.52;66.89
80186;BME280;69904;52.122;5.422;2023-05-29T03:29:36;102541.16;;;11.50;67.58
80186;BME280;69904;52.122;5.422;2023-05-29T03:32:03;102548.25;;;11.43;67.58
80186;BME280;69904;52.122;5.422;2023-05-29T03:34:29;102545.69;;;11.42;67.57
80186;BME280;69904;52.122;5.422;2023-05-29T03:36:56;102546.69;;;11.40;67.28
80186;BME280;69904;52.122;5.422;2023-05-29T03:39:23;102548.19;;;11.35;67.30
80186;BME280;69904;52.122;5.422;2023-05-29T03:41:49;102551.59;;;11.37;67.70
80186;BME280;69904;52.122;5.422;2023-05-29T03:44:16;102544.00;;;11.40;67.17
80186;BME280;69904;52.122;5.422;2023-05-29T03:46:42;102542.13;;;11.41;67.25
80186;BME280;69904;52.122;5.422;2023-05-29T03:49:08;102547.69;;;11.39;67.32
80186;BME280;69904;52.122;5.422;2023-05-29T03:51:35;102554.94;;;11.39;66.97
80186;BME280;69904;52.122;5.422;2023-05-29T03:54:02;102555.28;;;11.36;67.41
80186;BME280;69904;52.122;5.422;2023-05-29T03:56:29;102556.94;;;11.29;67.66
80186;BME280;69904;52.122;5.422;2023-05-29T03:58:56;102553.56;;;11.27;67.12
80186;BME280;69904;52.122;5.422;2023-05-29T04:01:23;102555.22;;;11.28;67.45
80186;BME280;69904;52.122;5.422;2023-05-29T04:03:49;102556.25;;;11.27;67.55
80186;BME280;69904;52.122;5.422;2023-05-29T04:06:16;102555.78;;;11.31;67.15
80186;BME280;69904;52.122;5.422;2023-05-29T04:08:43;102559.84;;;11.35;67.15
80186;BME280;69904;52.122;5.422;2023-05-29T04:11:09;102556.06;;;11.28;67.11
80186;BME280;69904;52.122;5.422;2023-05-29T04:13:38;102560.00;;;11.34;67.15
80186;BME280;69904;52.122;5.422;2023-05-29T04:16:04;102565.63;;;11.40;67.32
80186;BME280;69904;52.122;5.422;2023-05-29T04:18:31;102565.75;;;11.39;66.82
80186;BME280;69904;52.122;5.422;2023-05-29T04:20:57;102569.09;;;11.33;67.09
80186;BME280;69904;52.122;5.422;2023-05-29T04:23:24;102563.03;;;11.31;67.23
80186;BME280;69904;52.122;5.422;2023-05-29T04:25:51;102573.84;;;11.31;67.17
80186;BME280;69904;52.122;5.422;2023-05-29T04:28:17;102579.91;;;11.33;67.28
80186;BME280;69904;52.122;5.422;2023-05-29T04:30:47;102570.59;;;11.27;67.68
80186;BME280;69904;52.122;5.422;2023-05-29T04:33:13;102572.28;;;11.28;67.35
80186;BME280;69904;52.122;5.422;2023-05-29T04:35:40;102574.69;;;11.31;67.20
80186;BME280;69904;52.122;5.422;2023-05-29T04:38:10;102589.38;;;11.29;67.63
80186;BME280;69904;52.122;5.422;2023-05-29T04:40:36;102586.00;;;11.27;67.41
80186;BME280;69904;52.122;5.422;2023-05-29T04:43:03;102593.78;;;11.30;67.39
80186;BME280;69904;52.122;5.422;2023-05-29T04:45:31;102599.03;;;11.31;67.49
80186;BME280;69904;52.122;5.422;2023-05-29T04:47:58;102598.09;;;11.23;67.39
80186;BME280;69904;52.122;5.422;2023-05-29T04:50:25;102599.81;;;11.24;67.48
80186;BME280;69904;52.122;5.422;2023-05-29T04:52:52;102590.84;;;11.23;67.78
80186;BME280;69904;52.122;5.422;2023-05-29T04:55:18;102591.53;;;11.25;67.37
80186;BME280;69904;52.122;5.422;2023-05-29T04:57:45;102598.97;;;11.23;67.88
80186;BME280;69904;52.122;5.422;2023-05-29T05:00:12;102597.81;;;11.26;67.82
80186;BME280;69904;52.122;5.422;2023-05-29T05:02:44;102598.47;;;11.28;67.78
80186;BME280;69904;52.122;5.422;2023-05-29T05:05:11;102603.03;;;11.27;67.43
80186;BME280;69904;52.122;5.422;2023-05-29T05:07:38;102606.59;;;11.28;67.52
80186;BME280;69904;52.122;5.422;2023-05-29T05:10:05;102606.44;;;11.29;67.73
80186;BME280;69904;52.122;5.422;2023-05-29T05:12:32;102610.22;;;11.36;67.32
80186;BME280;69904;52.122;5.422;2023-05-29T05:14:59;102609.56;;;11.43;67.60
80186;BME280;69904;52.122;5.422;2023-05-29T05:17:25;102614.28;;;11.40;67.52
80186;BME280;69904;52.122;5.422;2023-05-29T05:19:52;102611.34;;;11.34;67.16
80186;BME280;69904;52.122;5.422;2023-05-29T05:22:19;102606.66;;;11.36;67.63
80186;BME280;69904;52.122;5.422;2023-05-29T05:24:46;102604.47;;;11.39;67.33
80186;BME280;69904;52.122;5.422;2023-05-29T05:27:13;102605.31;;;11.40;67.75
80186;BME280;69904;52.122;5.422;2023-05-29T05:29:39;102602.31;;;11.43;67.00
80186;BME280;69904;52.122;5.422;2023-05-29T05:32:06;102604.31;;;11.41;66.62
80186;BME280;69904;52.122;5.422;2023-05-29T05:34:33;102600.06;;;11.38;67.23
80186;BME280;69904;52.122;5.422;2023-05-29T05:36:59;102607.75;;;11.51;67.19
80186;BME280;69904;52.122;5.422;2023-05-29T05:39:26;102609.97;;;11.56;66.72
80186;BME280;69904;52.122;5.422;2023-05-29T05:41:53;102612.47;;;11.49;66.80
80186;BME280;69904;52.122;5.422;2023-05-29T05:44:19;102612.19;;;11.60;66.64
80186;BME280;69904;52.122;5.422;2023-05-29T05:46:46;102610.91;;;11.72;66.42
80186;BME280;69904;52.122;5.422;2023-05-29T05:49:13;102614.59;;;11.71;66.33
80186;BME280;69904;52.122;5.422;2023-05-29T05:51:40;102615.34;;;11.73;65.46
80186;BME280;69904;52.122;5.422;2023-05-29T05:54:06;102619.91;;;11.73;65.70
80186;BME280;69904;52.122;5.422;2023-05-29T05:56:32;102619.41;;;11.77;65.22
80186;BME280;69904;52.122;5.422;2023-05-29T05:58:59;102623.84;;;11.87;64.93
80186;BME280;69904;52.122;5.422;2023-05-29T06:01:26;102630.28;;;11.86;64.94
80186;BME280;69904;52.122;5.422;2023-05-29T06:03:53;102623.31;;;11.83;64.92
80186;BME280;69904;52.122;5.422;2023-05-29T06:06:20;102627.72;;;11.84;64.78
80186;BME280;69904;52.122;5.422;2023-05-29T06:08:47;102621.34;;;11.93;64.17
80186;BME280;69904;52.122;5.422;2023-05-29T06:11:13;102623.56;;;11.98;64.32
80186;BME280;69904;52.122;5.422;2023-05-29T06:13:39;102620.69;;;11.99;63.58
80186;BME280;69904;52.122;5.422;2023-05-29T06:16:06;102618.50;;;12.03;63.08
80186;BME280;69904;52.122;5.422;2023-05-29T06:18:32;102623.75;;;12.04;63.59
80186;BME280;69904;52.122;5.422;2023-05-29T06:20:59;102616.28;;;11.98;63.16
80186;BME280;69904;52.122;5.422;2023-05-29T06:23:26;102621.53;;;12.00;62.84
80186;BME280;69904;52.122;5.422;2023-05-29T06:25:53;102628.09;;;11.97;63.01
80186;BME280;69904;52.122;5.422;2023-05-29T06:28:19;102623.41;;;12.07;62.86
80186;BME280;69904;52.122;5.422;2023-05-29T06:30:46;102623.44;;;12.15;63.35
80186;BME280;69904;52.122;5.422;2023-05-29T06:33:13;102629.38;;;12.19;62.82
80186;BME280;69904;52.122;5.422;2023-05-29T06:35:39;102624.16;;;12.17;62.01
80186;BME280;69904;52.122;5.422;2023-05-29T06:38:06;102632.28;;;12.17;61.75
80186;BME280;69904;52.122;5.422;2023-05-29T06:40:32;102632.28;;;12.17;61.32
80186;BME280;69904;52.122;5.422;2023-05-29T06:42:59;102636.78;;;12.09;61.82
80186;BME280;69904;52.122;5.422;2023-05-29T06:45:26;102626.00;;;12.17;61.44
80186;BME280;69904;52.122;5.422;2023-05-29T06:47:53;102631.06;;;12.20;61.70
80186;BME280;69904;52.122;5.422;2023-05-29T06:50:21;102638.91;;;12.31;61.13
80186;BME280;69904;52.122;5.422;2023-05-29T06:52:48;102645.16;;;12.40;61.42
80186;BME280;69904;52.122;5.422;2023-05-29T06:55:14;102647.72;;;12.41;60.81
80186;BME280;69904;52.122;5.422;2023-05-29T06:57:41;102638.94;;;12.39;60.74
80186;BME280;69904;52.122;5.422;2023-05-29T07:00:07;102628.94;;;12.48;60.34
80186;BME280;69904;52.122;5.422;2023-05-29T07:02:37;102642.34;;;12.57;60.17
80186;BME280;69904;52.122;5.422;2023-05-29T07:05:03;102636.94;;;12.65;60.51
80186;BME280;69904;52.122;5.422;2023-05-29T07:07:30;102637.09;;;12.72;60.35
80186;BME280;69904;52.122;5.422;2023-05-29T07:09:56;102639.97;;;12.62;60.19
80186;BME280;69904;52.122;5.422;2023-05-29T07:12:23;102634.41;;;12.64;59.99
80186;BME280;69904;52.122;5.422;2023-05-29T07:14:49;102637.94;;;12.64;60.05
80186;BME280;69904;52.122;5.422;2023-05-29T07:17:16;102643.56;;;12.71;60.33
80186;BME280;69904;52.122;5.422;2023-05-29T07:19:43;102643.41;;;12.81;60.01
80186;BME280;69904;52.122;5.422;2023-05-29T07:22:09;102639.13;;;12.78;59.63
80186;BME280;69904;52.122;5.422;2023-05-29T07:24:36;102646.06;;;12.73;59.57
80186;BME280;69904;52.122;5.422;2023-05-29T07:27:03;102653.88;;;12.76;59.49
80186;BME280;69904;52.122;5.422;2023-05-29T07:29:29;102649.66;;;12.81;59.10
80186;BME280;69904;52.122;5.422;2023-05-29T07:31:56;102647.78;;;12.90;59.23
80186;BME280;69904;52.122;5.422;2023-05-29T07:34:22;102649.16;;;13.02;59.46
80186;BME280;69904;52.122;5.422;2023-05-29T07:36:59;102647.31;;;13.02;58.35
80186;BME280;69904;52.122;5.422;2023-05-29T07:39:26;102649.66;;;12.97;58.61
80186;BME280;69904;52.122;5.422;2023-05-29T07:41:53;102650.00;;;13.11;58.61
80186;BME280;69904;52.122;5.422;2023-05-29T07:44:20;102653.06;;;13.16;57.76
80186;BME280;69904;52.122;5.422;2023-05-29T07:46:46;102644.63;;;13.19;57.72
80186;BME280;69904;52.122;5.422;2023-05-29T07:49:13;102644.25;;;13.22;57.59
80186;BME280;69904;52.122;5.422;2023-05-29T07:51:39;102650.19;;;13.33;57.22
80186;BME280;69904;52.122;5.422;2023-05-29T07:54:06;102645.78;;;13.40;57.02
80186;BME280;69904;52.122;5.422;2023-05-29T07:56:33;102649.84;;;13.44;57.04
80186;BME280;69904;52.122;5.422;2023-05-29T07:59:00;102647.94;;;13.53;57.03
80186;BME280;69904;52.122;5.422;2023-05-29T08:01:27;102653.16;;;13.63;57.54
80186;BME280;69904;52.122;5.422;2023-05-29T08:03:53;102660.03;;;13.89;56.62
80186;BME280;69904;52.122;5.422;2023-05-29T08:06:20;102653.75;;;13.89;55.59
80186;BME280;69904;52.122;5.422;2023-05-29T08:08:47;102659.91;;;13.75;55.00
80186;BME280;69904;52.122;5.422;2023-05-29T08:11:14;102659.06;;;13.74;55.48
80186;BME280;69904;52.122;5.422;2023-05-29T08:13:40;102661.97;;;13.73;55.13
80186;BME280;69904;52.122;5.422;2023-05-29T08:16:07;102653.13;;;13.79;55.12
80186;BME280;69904;52.122;5.422;2023-05-29T08:18:34;102661.56;;;13.92;55.57
80186;BME280;69904;52.122;5.422;2023-05-29T08:21:00;102666.47;;;13.97;54.84
80186;BME280;69904;52.122;5.422;2023-05-29T08:23:27;102659.34;;;13.96;54.18
80186;BME280;69904;52.122;5.422;2023-05-29T08:25:54;102655.13;;;13.93;54.75
80186;BME280;69904;52.122;5.422;2023-05-29T08:28:21;102673.22;;;14.01;54.25
80186;BME280;69904;52.122;5.422;2023-05-29T08:30:47;102669.34;;;14.03;54.64
80186;BME280;69904;52.122;5.422;2023-05-29T08:33:14;102663.53;;;14.06;54.67
80186;BME280;69904;52.122;5.422;2023-05-29T08:35:40;102666.41;;;14.13;54.69
80186;BME280;69904;52.122;5.422;2023-05-29T08:38:07;102650.59;;;14.16;54.19
80186;BME280;69904;52.122;5.422;2023-05-29T08:40:34;102660.94;;;14.21;54.91
80186;BME280;69904;52.122;5.422;2023-05-29T08:43:08;102660.41;;;14.25;54.71
80186;BME280;69904;52.122;5.422;2023-05-29T08:45:42;102668.69;;;14.32;53.91
80186;BME280;69904;52.122;5.422;2023-05-29T08:48:10;102664.56;;;14.44;54.00
80186;BME280;69904;52.122;5.422;2023-05-29T08:50:43;102665.06;;;14.48;53.89
80186;BME280;69904;52.122;5.422;2023-05-29T08:53:13;102677.94;;;14.54;53.70
80186;BME280;69904;52.122;5.422;2023-05-29T08:55:42;102662.84;;;14.51;53.08
80186;BME280;69904;52.122;5.422;2023-05-29T08:58:09;102670.75;;;14.61;52.98
80186;BME280;69904;52.122;5.422;2023-05-29T09:00:36;102661.72;;;14.68;53.23
80186;BME280;69904;52.122;5.422;2023-05-29T09:03:03;102667.09;;;14.77;52.65
80186;BME280;69904;52.122;5.422;2023-05-29T09:05:30;102671.50;;;14.78;52.20
80186;BME280;69904;52.122;5.422;2023-05-29T09:07:56;102660.25;;;14.81;53.06
80186;BME280;69904;52.122;5.422;2023-05-29T09:10:23;102669.31;;;14.96;52.69
80186;BME280;69904;52.122;5.422;2023-05-29T09:12:51;102676.75;;;15.02;52.11
80186;BME280;69904;52.122;5.422;2023-05-29T09:15:21;102679.16;;;14.97;52.22
80186;BME280;69904;52.122;5.422;2023-05-29T09:17:57;102673.31;;;15.08;52.45
80186;BME280;69904;52.122;5.422;2023-05-29T09:20:24;102679.63;;;15.23;51.58
80186;BME280;69904;52.122;5.422;2023-05-29T09:23:02;102669.69;;;15.15;51.86
80186;BME280;69904;52.122;5.422;2023-05-29T09:25:31;102673.97;;;15.10;51.38
80186;BME280;69904;52.122;5.422;2023-05-29T09:28:02;102674.28;;;15.15;51.13
80186;BME280;69904;52.122;5.422;2023-05-29T09:30:40;102679.16;;;15.20;50.91
80186;BME280;69904;52.122;5.422;2023-05-29T09:33:08;102673.72;;;15.20;50.44
80186;BME280;69904;52.122;5.422;2023-05-29T09:35:43;102669.03;;;15.28;51.12
80186;BME280;69904;52.122;5.422;2023-05-29T09:38:12;102669.84;;;15.37;49.86
80186;BME280;69904;52.122;5.422;2023-05-29T09:41:04;102675.28;;;15.37;50.05
80186;BME280;69904;52.122;5.422;2023-05-29T09:43:31;102671.31;;;15.39;50.99
80186;BME280;69904;52.122;5.422;2023-05-29T09:46:00;102679.31;;;15.41;50.85
80186;BME280;69904;52.122;5.422;2023-05-29T09:48:28;102671.72;;;15.51;50.00
80186;BME280;69904;52.122;5.422;2023-05-29T09:50:55;102671.69;;;15.59;50.53
80186;BME280;69904;52.122;5.422;2023-05-29T09:53:25;102669.88;;;15.66;48.82
80186;BME280;69904;52.122;5.422;2023-05-29T09:55:53;102667.66;;;15.84;49.34
80186;BME280;69904;52.122;5.422;2023-05-29T09:58:22;102664.81;;;15.92;48.73
80186;BME280;69904;52.122;5.422;2023-05-29T10:00:49;102670.66;;;15.89;48.80
80186;BME280;69904;52.122;5.422;2023-05-29T10:03:18;102661.06;;;15.93;49.73
80186;BME280;69904;52.122;5.422;2023-05-29T10:05:48;102661.34;;;15.98;50.30
80186;BME280;69904;52.122;5.422;2023-05-29T10:08:20;102660.47;;;16.27;49.41
80186;BME280;69904;52.122;5.422;2023-05-29T10:10:51;102665.00;;;16.20;48.16
80186;BME280;69904;52.122;5.422;2023-05-29T10:13:22;102664.91;;;16.14;48.76
80186;BME280;69904;52.122;5.422;2023-05-29T10:15:51;102658.72;;;16.05;48.05
80186;BME280;69904;52.122;5.422;2023-05-29T10:18:24;102650.09;;;16.02;48.25
80186;BME280;69904;52.122;5.422;2023-05-29T10:20:54;102653.66;;;16.02;48.68
80186;BME280;69904;52.122;5.422;2023-05-29T10:23:25;102659.41;;;16.07;48.56
80186;BME280;69904;52.122;5.422;2023-05-29T10:26:02;102658.97;;;16.25;49.20
80186;BME280;69904;52.122;5.422;2023-05-29T10:28:33;102661.59;;;16.33;48.32
80186;BME280;69904;52.122;5.422;2023-05-29T10:31:08;102657.63;;;16.50;48.15
80186;BME280;69904;52.122;5.422;2023-05-29T10:34:02;102648.84;;;16.69;48.46
80186;BME280;69904;52.122;5.422;2023-05-29T10:36:44;102647.72;;;16.64;46.73
80186;BME280;69904;52.122;5.422;2023-05-29T10:39:13;102653.56;;;16.61;46.49
80186;BME280;69904;52.122;5.422;2023-05-29T10:41:39;102649.50;;;16.71;46.61
80186;BME280;69904;52.122;5.422;2023-05-29T10:49:26;102650.28;;;16.87;46.46
80186;BME280;69904;52.122;5.422;2023-05-29T10:51:52;102643.63;;;16.96;46.14
80186;BME280;69904;52.122;5.422;2023-05-29T10:54:22;102642.41;;;16.98;45.22
80186;BME280;69904;52.122;5.422;2023-05-29T10:57:16;102642.66;;;17.03;45.75
80186;BME280;69904;52.122;5.422;2023-05-29T10:59:45;102634.81;;;17.21;44.42
80186;BME280;69904;52.122;5.422;2023-05-29T11:02:17;102631.75;;;17.31;44.28
80186;BME280;69904;52.122;5.422;2023-05-29T11:04:43;102641.38;;;17.27;43.99
80186;BME280;69904;52.122;5.422;2023-05-29T11:07:33;102643.22;;;17.48;44.99
80186;BME280;69904;52.122;5.422;2023-05-29T11:10:12;102634.84;;;17.49;44.27
80186;BME280;69904;52.122;5.422;2023-05-29T11:12:56;102639.94;;;17.59;45.99
80186;BME280;69904;52.122;5.422;2023-05-29T11:15:24;102642.88;;;17.57;43.01
80186;BME280;69904;52.122;5.422;2023-05-29T11:17:50;102642.59;;;17.52;43.35
80186;BME280;69904;52.122;5.422;2023-05-29T11:23:02;102635.34;;;17.59;42.56
80186;BME280;69904;52.122;5.422;2023-05-29T11:25:32;102636.50;;;17.72;42.13
80186;BME280;69904;52.122;5.422;2023-05-29T11:28:00;102633.16;;;17.76;43.16
80186;BME280;69904;52.122;5.422;2023-05-29T11:30:27;102630.84;;;17.73;41.68
80186;BME280;69904;52.122;5.422;2023-05-29T11:32:54;102631.66;;;17.74;41.73
80186;BME280;69904;52.122;5.422;2023-05-29T11:35:26;102635.63;;;17.71;41.91
80186;BME280;69904;52.122;5.422;2023-05-29T11:37:53;102636.53;;;17.78;42.46
80186;BME280;69904;52.122;5.422;2023-05-29T11:40:20;102633.19;;;17.83;41.45
80186;BME280;69904;52.122;5.422;2023-05-29T11:42:47;102639.03;;;17.73;41.49
80186;BME280;69904;52.122;5.422;2023-05-29T11:45:21;102639.22;;;17.72;41.57
80186;BME280;69904;52.122;5.422;2023-05-29T11:48:05;102632.72;;;17.73;42.12
80186;BME280;69904;52.122;5.422;2023-05-29T11:50:33;102639.25;;;17.78;41.87
80186;BME280;69904;52.122;5.422;2023-05-29T11:53:02;102632.97;;;17.78;42.55
80186;BME280;69904;52.122;5.422;2023-05-29T11:55:29;102637.16;;;17.80;42.69
80186;BME280;69904;52.122;5.422;2023-05-29T11:57:59;102641.16;;;17.78;42.84
80186;BME280;69904;52.122;5.422;2023-05-29T12:00:31;102643.66;;;17.79;43.91
80186;BME280;69904;52.122;5.422;2023-05-29T12:02:58;102628.28;;;17.72;43.41
80186;BME280;69904;52.122;5.422;2023-05-29T12:05:43;102630.41;;;17.76;43.35
80186;BME280;69904;52.122;5.422;2023-05-29T12:08:10;102627.78;;;17.89;42.59
80186;BME280;69904;52.122;5.422;2023-05-29T12:10:37;102626.88;;;17.82;42.27
80186;BME280;69904;52.122;5.422;2023-05-29T12:13:03;102636.06;;;17.75;42.24
80186;BME280;69904;52.122;5.422;2023-05-29T12:15:30;102621.75;;;17.66;42.76
80186;BME280;69904;52.122;5.422;2023-05-29T12:17:56;102632.66;;;17.66;43.00
80186;BME280;69904;52.122;5.422;2023-05-29T12:20:24;102631.06;;;17.78;42.61
80186;BME280;69904;52.122;5.422;2023-05-29T12:22:59;102638.25;;;17.86;42.52
80186;BME280;69904;52.122;5.422;2023-05-29T12:25:27;102645.16;;;17.82;41.94
80186;BME280;69904;52.122;5.422;2023-05-29T12:27:56;102636.16;;;17.88;40.98
80186;BME280;69904;52.122;5.422;2023-05-29T12:30:24;102630.94;;;17.93;41.84
80186;BME280;69904;52.122;5.422;2023-05-29T12:32:59;102619.38;;;17.97;41.50
80186;BME280;69904;52.122;5.422;2023-05-29T12:35:28;102636.78;;;17.90;41.14
80186;BME280;69904;52.122;5.422;2023-05-29T12:38:02;102628.84;;;17.95;41.32
80186;BME280;69904;52.122;5.422;2023-05-29T12:40:32;102626.84;;;17.76;41.21
80186;BME280;69904;52.122;5.422;2023-05-29T12:43:07;102625.47;;;17.93;41.67
80186;BME280;69904;52.122;5.422;2023-05-29T12:45:37;102625.75;;;18.11;40.62
80186;BME280;69904;52.122;5.422;2023-05-29T12:48:05;102627.03;;;18.15;40.38
80186;BME280;69904;52.122;5.422;2023-05-29T12:50:37;102623.91;;;18.25;40.61
80186;BME280;69904;52.122;5.422;2023-05-29T12:53:12;102622.06;;;18.38;41.35
80186;BME280;69904;52.122;5.422;2023-05-29T12:55:42;102623.56;;;18.41;41.11
80186;BME280;69904;52.122;5.422;2023-05-29T12:58:10;102617.75;;;18.57;39.46
80186;BME280;69904;52.122;5.422;2023-05-29T13:00:38;102619.19;;;18.60;39.53
80186;BME280;69904;52.122;5.422;2023-05-29T13:03:05;102626.53;;;18.52;39.57
80186;BME280;69904;52.122;5.422;2023-05-29T13:05:33;102628.81;;;18.49;38.82
80186;BME280;69904;52.122;5.422;2023-05-29T13:07:59;102629.63;;;18.36;38.76
80186;BME280;69904;52.122;5.422;2023-05-29T13:10:27;102624.41;;;18.41;38.91